Time;durP1;ratioP1;P1;durP2;ratioP2;P2;SDS_P1;SDS_P2;PMS_P1;PMS_P2;Temp;Humidity;BMP_temperature;BMP_pressure;BME280_temperature;BME280_humidity;BME280_pressure;Samples;Min_cycle;Max_cycle;Signal;HPM_P1;HPM_P2
2021/12/31 00:01:09;;;;;;;123.87;36.17;;;;;;;-1.83;100.00;101449.02;1659091;86;21166;-92
2021/12/31 00:03:35;;;;;;;135.37;39.90;;;;;;;-1.80;100.00;101446.05;1659066;85;20994;-91
2021/12/31 00:06:01;;;;;;;132.32;39.23;;;;;;;-1.75;100.00;101441.13;1659304;86;20896;-92
2021/12/31 00:08:27;;;;;;;121.40;35.35;;;;;;;-1.75;100.00;101435.84;1659282;86;23007;-92
2021/12/31 00:10:59;;;;;;;126.15;36.10;;;;;;;-1.80;100.00;101434.17;1659536;86;20932;-92
2021/12/31 00:13:22;;;;;;;123.65;37.08;;;;;;;-1.78;100.00;101425.60;1655787;86;21082;-91
2021/12/31 00:15:48;;;;;;;116.77;35.70;;;;;;;-1.71;100.00;101424.47;1659328;86;20872;-92
2021/12/31 00:18:13;;;;;;;119.95;35.92;;;;;;;-1.69;100.00;101426.47;1637159;86;21641;-91
2021/12/31 00:20:40;;;;;;;125.12;37.83;;;;;;;-1.70;100.00;101421.68;1672998;84;20955;-92
2021/12/31 00:23:09;;;;;;;120.28;35.90;;;;;;;-1.64;100.00;101426.83;1699152;84;21071;-91
2021/12/31 00:25:40;;;;;;;119.02;36.00;;;;;;;-1.61;100.00;101431.79;1699124;82;22558;-92
2021/12/31 00:28:07;;;;;;;126.90;37.50;;;;;;;-1.64;100.00;101429.47;1699502;84;21519;-92
2021/12/31 00:30:35;;;;;;;125.60;36.93;;;;;;;-1.62;100.00;101424.83;1699734;84;21105;-92
2021/12/31 00:33:02;;;;;;;118.93;37.80;;;;;;;-1.60;100.00;101423.69;1699647;84;21046;-92
2021/12/31 00:35:32;;;;;;;137.28;40.65;;;;;;;-1.58;100.00;101421.40;1699429;83;21073;-91
2021/12/31 00:37:59;;;;;;;148.15;43.13;;;;;;;-1.56;100.00;101422.05;1699510;84;21249;-91
2021/12/31 00:40:28;;;;;;;126.78;40.98;;;;;;;-1.56;100.00;101427.33;1699350;84;21082;-92
2021/12/31 00:42:56;;;;;;;140.75;40.95;;;;;;;-1.60;100.00;101428.97;1699202;84;21054;-91
2021/12/31 00:47:52;;;;;;;200.30;51.75;;;;;;;-1.66;100.00;101425.65;1664855;84;21116;-92
2021/12/31 00:50:18;;;;;;;147.53;43.48;;;;;;;-1.62;100.00;101430.97;1665065;85;21624;-91
2021/12/31 00:52:44;;;;;;;142.77;42.88;;;;;;;-1.59;100.00;101432.44;1665338;86;21113;-92
2021/12/31 00:55:11;;;;;;;164.88;46.83;;;;;;;-1.56;100.00;101428.16;1665385;85;21046;-91
2021/12/31 00:57:39;;;;;;;143.02;42.83;;;;;;;-1.54;100.00;101439.41;1664951;85;21112;-90
2021/12/31 01:00:08;;;;;;;181.90;50.63;;;;;;;-1.53;100.00;101438.44;1665477;86;21141;-91
2021/12/31 01:02:34;;;;;;;211.82;57.48;;;;;;;-1.51;100.00;101435.12;1665044;85;21139;-90
2021/12/31 01:05:03;;;;;;;171.45;51.25;;;;;;;-1.51;100.00;101431.16;1665116;85;21113;-91
2021/12/31 01:07:29;;;;;;;161.73;45.20;;;;;;;-1.52;100.00;101434.80;1665376;85;21109;-91
2021/12/31 01:09:56;;;;;;;143.35;44.27;;;;;;;-1.51;100.00;101426.37;1665249;84;21100;-91
2021/12/31 01:12:24;;;;;;;134.47;41.58;;;;;;;-1.50;100.00;101426.22;1664982;85;21593;-90
2021/12/31 01:15:06;;;;;;;139.57;42.80;;;;;;;-1.53;100.00;101426.55;1665094;85;21979;-90
2021/12/31 01:20:10;;;;;;;131.75;39.60;;;;;;;-1.55;100.00;101423.22;1655429;84;21118;-90
2021/12/31 01:22:36;;;;;;;130.57;39.55;;;;;;;-1.57;100.00;101429.16;1652866;86;21097;-90
2021/12/31 01:25:05;;;;;;;126.90;39.00;;;;;;;-1.58;100.00;101423.55;1652980;86;21617;-91
2021/12/31 01:27:31;;;;;;;119.85;36.45;;;;;;;-1.56;100.00;101420.72;1652635;86;21359;-91
2021/12/31 01:29:57;;;;;;;114.35;35.92;;;;;;;-1.56;100.00;101422.87;1653114;86;21159;-90
2021/12/31 01:32:24;;;;;;;107.63;34.20;;;;;;;-1.58;100.00;101416.94;1652650;86;20979;-90
2021/12/31 01:34:50;;;;;;;110.60;33.45;;;;;;;-1.60;100.00;101414.94;1652337;86;21110;-90
2021/12/31 01:37:16;;;;;;;105.85;32.30;;;;;;;-1.61;100.00;101410.66;1652738;86;20971;-91
2021/12/31 01:39:43;;;;;;;119.95;36.98;;;;;;;-1.58;100.00;101416.94;1652762;86;21751;-90
2021/12/31 01:42:13;;;;;;;110.30;34.53;;;;;;;-1.60;100.00;101413.11;1652493;86;21054;-90
2021/12/31 01:44:44;;;;;;;113.32;35.52;;;;;;;-1.59;100.00;101420.55;1652587;86;21161;-90
2021/12/31 01:47:14;;;;;;;116.93;36.73;;;;;;;-1.65;100.00;101412.79;1649025;86;21082;-90
2021/12/31 01:49:53;;;;;;;125.38;38.38;;;;;;;-1.64;100.00;101403.05;1630198;86;21614;-89
2021/12/31 01:52:11;;;;;;;124.30;39.95;;;;;;;-1.66;100.00;101399.72;1652538;86;21068;-90
2021/12/31 01:54:38;;;;;;;148.95;45.75;;;;;;;-1.65;100.00;101392.97;1663498;86;21052;-90
2021/12/31 01:57:08;;;;;;;133.20;40.33;;;;;;;-1.65;100.00;101395.61;1663705;86;21002;-90
2021/12/31 01:59:37;;;;;;;130.75;38.38;;;;;;;-1.64;100.00;101386.69;1663895;86;21047;-90
2021/12/31 02:02:06;;;;;;;128.65;38.15;;;;;;;-1.67;100.00;101383.05;1663806;86;20990;-91
2021/12/31 02:04:34;;;;;;;127.58;39.73;;;;;;;-1.70;100.00;101383.87;1663532;84;21073;-90
2021/12/31 02:07:00;;;;;;;131.15;40.15;;;;;;;-1.70;100.00;101382.55;1663594;86;21053;-91
2021/12/31 02:09:27;;;;;;;136.77;40.65;;;;;;;-1.67;100.00;101379.09;1663737;86;21045;-91
2021/12/31 02:11:55;;;;;;;125.27;38.30;;;;;;;-1.62;100.00;101375.48;1663285;84;21510;-90
2021/12/31 02:14:24;;;;;;;122.35;37.25;;;;;;;-1.64;100.00;101376.62;1663737;86;21573;-90
2021/12/31 02:16:49;;;;;;;129.72;39.15;;;;;;;-1.65;100.00;101368.34;1663661;84;20978;-90
2021/12/31 02:19:25;;;;;;;119.50;37.42;;;;;;;-1.68;100.00;101365.52;1675627;84;20967;-91
2021/12/31 02:21:45;;;;;;;133.65;36.75;;;;;;;-1.67;100.00;101365.05;1704967;84;22292;-90
2021/12/31 02:24:12;;;;;;;114.72;35.60;;;;;;;-1.69;100.00;101358.59;1708689;84;21066;-90
2021/12/31 02:26:40;;;;;;;118.85;36.15;;;;;;;-1.68;100.00;101358.09;1708268;84;21106;-91
2021/12/31 02:29:06;;;;;;;113.32;36.08;;;;;;;-1.69;100.00;101353.31;1708296;84;21092;-90
2021/12/31 02:31:32;;;;;;;107.25;33.92;;;;;;;-1.69;100.00;101345.87;1708133;83;21472;-91
2021/12/31 02:33:58;;;;;;;111.03;34.92;;;;;;;-1.70;100.00;101345.06;1708365;84;21046;-91
2021/12/31 02:36:24;;;;;;;108.52;33.75;;;;;;;-1.71;100.00;101347.34;1708642;84;21045;-92
2021/12/31 02:38:50;;;;;;;109.52;33.90;;;;;;;-1.79;100.00;101346.02;1708570;83;20995;-91
2021/12/31 02:41:16;;;;;;;101.80;32.42;;;;;;;-1.85;100.00;101336.92;1708663;83;21057;-91
2021/12/31 02:43:42;;;;;;;106.97;31.77;;;;;;;-1.89;100.00;101326.82;1708598;84;21022;-91
2021/12/31 02:46:08;;;;;;;112.37;35.25;;;;;;;-1.87;100.00;101346.81;1708640;83;21050;-91
2021/12/31 02:48:34;;;;;;;111.50;33.55;;;;;;;-1.87;100.00;101341.53;1708455;84;20888;-91
2021/12/31 02:51:02;;;;;;;111.45;35.08;;;;;;;-1.88;100.00;101338.56;1708587;84;21090;-90
2021/12/31 02:53:38;;;;;;;114.57;34.33;;;;;;;-1.90;100.00;101340.53;1708498;83;21874;-90
2021/12/31 02:56:08;;;;;;;107.35;34.25;;;;;;;-1.92;100.00;101339.85;1708330;83;21015;-90
2021/12/31 02:58:35;;;;;;;115.22;34.78;;;;;;;-1.89;100.00;101347.45;1708526;84;21089;-90
2021/12/31 03:01:04;;;;;;;111.50;33.75;;;;;;;-1.90;100.00;101343.17;1708419;84;21011;-90
2021/12/31 03:03:33;;;;;;;122.20;36.77;;;;;;;-1.86;100.00;101340.53;1708487;84;20995;-90
2021/12/31 03:06:00;;;;;;;115.60;36.65;;;;;;;-1.81;100.00;101340.06;1708656;84;21128;-90
2021/12/31 03:08:30;;;;;;;121.80;36.53;;;;;;;-1.80;100.00;101336.92;1708562;84;20972;-90
2021/12/31 03:10:59;;;;;;;120.47;35.33;;;;;;;-1.80;100.00;101334.28;1708446;84;21074;-91
2021/12/31 03:13:25;;;;;;;115.22;35.65;;;;;;;-1.81;100.00;101329.50;1708573;84;21407;-90
2021/12/31 03:15:52;;;;;;;124.85;35.73;;;;;;;-1.81;100.00;101327.35;1708611;84;21070;-90
2021/12/31 03:18:19;;;;;;;114.50;35.60;;;;;;;-1.84;100.00;101331.96;1708497;84;21885;-90
2021/12/31 03:20:57;;;;;;;111.52;34.27;;;;;;;-1.86;100.00;101333.92;1706336;84;20983;-91
2021/12/31 03:23:15;;;;;;;114.75;35.92;;;;;;;-1.88;100.00;101334.60;1702877;84;21019;-90
2021/12/31 03:25:40;;;;;;;104.63;34.08;;;;;;;-1.86;100.00;101329.97;1706199;83;21575;-90
2021/12/31 03:28:07;;;;;;;108.07;34.08;;;;;;;-1.81;100.00;101329.50;1705910;84;20975;-90
2021/12/31 03:30:33;;;;;;;118.28;35.40;;;;;;;-1.81;100.00;101329.50;1706063;84;22417;-90
2021/12/31 03:32:59;;;;;;;109.22;35.03;;;;;;;-1.87;100.00;101319.58;1706198;84;21070;-90
2021/12/31 03:35:25;;;;;;;108.22;34.08;;;;;;;-1.87;100.00;101317.75;1706112;84;20995;-91
2021/12/31 03:37:51;;;;;;;116.88;33.90;;;;;;;-1.86;100.00;101308.83;1706158;84;21044;-91
2021/12/31 03:40:17;;;;;;;113.75;34.88;;;;;;;-1.78;100.00;101308.05;1706217;84;20885;-91
2021/12/31 03:42:43;;;;;;;109.07;34.60;;;;;;;-1.77;100.00;101299.62;1706081;84;21168;-91
2021/12/31 03:45:10;;;;;;;112.62;33.88;;;;;;;-1.77;100.00;101295.66;1706126;83;21768;-91
2021/12/31 03:47:36;;;;;;;117.55;34.73;;;;;;;-1.81;100.00;101300.94;1706274;82;21530;-91
2021/12/31 03:50:03;;;;;;;112.20;34.95;;;;;;;-1.88;100.00;101305.55;1706392;83;20903;-91
2021/12/31 03:52:29;;;;;;;110.75;34.18;;;;;;;-1.92;100.00;101303.38;1706237;83;21654;-91
2021/12/31 03:54:54;;;;;;;114.85;33.67;;;;;;;-1.91;100.00;101304.55;1706196;84;21106;-91
2021/12/31 03:57:20;;;;;;;116.57;33.60;;;;;;;-1.93;100.00;101310.97;1705986;84;20939;-90
2021/12/31 03:59:46;;;;;;;100.47;31.33;;;;;;;-1.99;100.00;101304.52;1706308;83;20935;-91
2021/12/31 04:02:12;;;;;;;108.17;31.00;;;;;;;-1.99;100.00;101306.33;1706303;84;21716;-90
2021/12/31 04:04:38;;;;;;;103.75;30.35;;;;;;;-1.99;100.00;101309.80;1685686;84;21003;-91
2021/12/31 04:07:04;;;;;;;90.42;29.67;;;;;;;-1.99;100.00;101308.48;1706334;84;20993;-90
2021/12/31 04:09:30;;;;;;;98.58;30.00;;;;;;;-1.95;100.00;101311.62;1706059;83;21004;-91
2021/12/31 04:11:56;;;;;;;96.82;30.12;;;;;;;-1.92;100.00;101311.30;1706111;84;20903;-91
2021/12/31 04:14:22;;;;;;;95.42;28.17;;;;;;;-1.91;100.00;101313.79;1706288;83;21041;-91
2021/12/31 04:16:48;;;;;;;96.97;31.25;;;;;;;-1.90;100.00;101311.97;1706301;84;21046;-91
2021/12/31 04:19:14;;;;;;;98.85;29.82;;;;;;;-1.88;100.00;101310.01;1705971;84;21673;-91
2021/12/31 04:21:40;;;;;;;103.05;29.10;;;;;;;-1.84;100.00;101304.22;1705557;83;21011;-90
2021/12/31 04:26:40;;;;;;;96.22;27.98;;;;;;;-1.83;100.00;101304.55;1634783;87;21117;-91
2021/12/31 04:29:06;;;;;;;90.62;25.00;;;;;;;-1.84;100.00;101306.05;1635012;87;21133;-92
2021/12/31 04:31:32;;;;;;;91.53;26.37;;;;;;;-1.86;100.00;101294.80;1635041;87;21562;-91
2021/12/31 04:34:04;;;;;;;105.32;27.45;;;;;;;-1.85;100.00;101296.48;1631486;87;20915;-92
2021/12/31 04:36:29;;;;;;;95.00;26.95;;;;;;;-1.84;100.00;101300.77;1634939;87;21029;-90
2021/12/31 04:38:55;;;;;;;91.47;27.07;;;;;;;-1.87;100.00;101290.02;1635043;87;21568;-91
2021/12/31 04:41:21;;;;;;;82.27;24.30;;;;;;;-1.89;100.00;101289.34;1613346;87;20951;-91
2021/12/31 04:43:47;;;;;;;91.40;25.72;;;;;;;-1.87;100.00;101290.02;1635030;87;21095;-90
2021/12/31 04:46:13;;;;;;;81.40;23.18;;;;;;;-1.85;100.00;101289.38;1613344;87;20915;-91
2021/12/31 04:48:38;;;;;;;85.17;23.52;;;;;;;-1.79;100.00;101291.87;1635069;87;21419;-91
2021/12/31 04:51:05;;;;;;;90.50;23.52;;;;;;;-1.74;100.00;101297.97;1635127;87;20997;-91
2021/12/31 04:53:30;;;;;;;81.82;22.60;;;;;;;-1.72;100.00;101298.64;1634826;87;21102;-91
2021/12/31 04:55:57;;;;;;;85.25;23.62;;;;;;;-1.74;100.00;101307.22;1635038;87;21144;-91
2021/12/31 04:58:22;;;;;;;87.80;24.30;;;;;;;-1.84;100.00;101308.19;1634978;87;21223;-91
2021/12/31 05:00:48;;;;;;;76.60;22.55;;;;;;;-1.83;100.00;101311.65;1634951;87;20971;-91
2021/12/31 05:03:14;;;;;;;76.15;23.60;;;;;;;-1.86;100.00;101315.44;1635253;87;21254;-90
2021/12/31 05:05:40;;;;;;;81.10;22.67;;;;;;;-1.86;100.00;101322.54;1635333;87;21108;-89
2021/12/31 05:08:06;;;;;;;84.40;22.58;;;;;;;-1.89;100.00;101315.76;1634839;87;21308;-90
2021/12/31 05:10:33;;;;;;;78.97;23.20;;;;;;;-1.89;100.00;101309.66;1635028;87;20962;-90
2021/12/31 05:13:02;;;;;;;79.42;22.60;;;;;;;-1.87;100.00;101314.29;1631261;87;21561;-91
2021/12/31 05:15:33;;;;;;;72.17;22.48;;;;;;;-1.81;100.00;101322.07;1635143;87;21605;-90
2021/12/31 05:17:57;;;;;;;73.62;22.32;;;;;;;-1.81;100.00;101314.97;1631664;87;21031;-89
2021/12/31 05:20:23;;;;;;;79.45;23.70;;;;;;;-1.78;100.00;101324.39;1629396;87;21287;-90
2021/12/31 05:22:49;;;;;;;82.82;25.37;;;;;;;-1.75;100.00;101326.70;1640228;85;21035;-90
2021/12/31 05:25:16;;;;;;;86.72;25.55;;;;;;;-1.71;100.00;101328.03;1675662;85;21121;-89
2021/12/31 05:27:43;;;;;;;81.40;23.47;;;;;;;-1.71;100.00;101328.03;1675453;85;21056;-91
2021/12/31 05:30:10;;;;;;;74.37;23.02;;;;;;;-1.71;100.00;101333.31;1675735;85;21062;-90
2021/12/31 05:32:36;;;;;;;74.70;22.80;;;;;;;-1.67;100.00;101341.27;1675446;85;21753;-90
2021/12/31 05:35:03;;;;;;;73.55;21.45;;;;;;;-1.65;100.00;101343.23;1675653;85;20863;-90
2021/12/31 05:37:29;;;;;;;75.72;21.05;;;;;;;-1.63;100.00;101342.59;1675713;85;21424;-89
2021/12/31 05:39:56;;;;;;;71.75;20.68;;;;;;;-1.56;100.00;101326.41;1675813;85;21019;-91
2021/12/31 05:42:22;;;;;;;71.95;22.67;;;;;;;-1.53;100.00;101331.40;1675910;85;21035;-90
2021/12/31 05:44:48;;;;;;;76.67;22.98;;;;;;;-1.54;100.00;101338.98;1675905;85;21230;-91
2021/12/31 05:47:15;;;;;;;79.70;22.85;;;;;;;-1.58;100.00;101335.02;1675688;85;21094;-90
2021/12/31 05:49:41;;;;;;;81.22;22.85;;;;;;;-1.57;100.00;101330.55;1675897;85;20988;-90
2021/12/31 05:52:07;;;;;;;83.95;24.52;;;;;;;-1.54;100.00;101324.94;1675533;84;21105;-90
2021/12/31 05:54:34;;;;;;;81.37;23.55;;;;;;;-1.53;100.00;101319.98;1675853;85;21011;-91
2021/12/31 05:56:59;;;;;;;77.72;22.98;;;;;;;-1.51;100.00;101316.69;1675891;85;21366;-90
2021/12/31 05:59:25;;;;;;;79.27;23.83;;;;;;;-1.49;100.00;101314.72;1675679;85;21612;-90
2021/12/31 06:01:51;;;;;;;74.22;21.68;;;;;;;-1.45;100.00;101319.50;1675599;85;20868;-90
2021/12/31 06:04:18;;;;;;;74.17;22.35;;;;;;;-1.42;100.00;101318.34;1675617;85;21026;-95
2021/12/31 06:06:44;;;;;;;75.45;22.48;;;;;;;-1.38;100.00;101317.05;1675748;84;21608;-90
2021/12/31 06:09:14;;;;;;;76.35;22.65;;;;;;;-1.34;100.00;101316.22;1675737;85;21147;-90
2021/12/31 06:11:43;;;;;;;87.95;24.05;;;;;;;-1.37;100.00;101322.16;1675312;85;21080;-90
2021/12/31 06:14:11;;;;;;;79.40;23.55;;;;;;;-1.40;100.00;101322.48;1675525;85;21141;-90
2021/12/31 06:16:42;;;;;;;326.25;100.05;;;;;;;-1.42;100.00;101314.38;1675524;85;20996;-90
2021/12/31 06:19:12;;;;;;;180.22;53.60;;;;;;;-1.39;100.00;101322.80;1675189;85;21089;-89
2021/12/31 06:21:41;;;;;;;137.28;45.23;;;;;;;-1.39;100.00;101302.98;1699814;84;21312;-90
2021/12/31 06:24:07;;;;;;;106.63;32.88;;;;;;;-1.38;100.00;101294.58;1708522;84;20991;-91
2021/12/31 06:26:34;;;;;;;100.30;29.37;;;;;;;-1.38;100.00;101283.51;1708698;84;21030;-90
2021/12/31 06:29:01;;;;;;;83.92;25.37;;;;;;;-1.26;100.00;101293.77;1710099;82;21046;-90
2021/12/31 06:31:27;;;;;;;87.25;26.60;;;;;;;-1.23;100.00;101301.36;1703553;83;21035;-90
2021/12/31 06:33:53;;;;;;;75.12;22.00;;;;;;;-1.18;100.00;101312.25;1710338;82;22628;-91
2021/12/31 06:36:20;;;;;;;83.03;25.52;;;;;;;-1.15;100.00;101310.59;1709911;82;21007;-90
2021/12/31 06:38:47;;;;;;;86.87;24.45;;;;;;;-1.16;100.00;101307.63;1709740;83;21051;-90
2021/12/31 06:41:16;;;;;;;92.97;28.12;;;;;;;-1.12;100.00;101305.48;1710155;82;21066;-90
2021/12/31 06:43:42;;;;;;;81.35;22.75;;;;;;;-1.06;100.00;101310.10;1709855;83;21086;-90
2021/12/31 06:46:08;;;;;;;81.80;24.25;;;;;;;-1.02;100.00;101313.59;1710141;83;21116;-90
2021/12/31 06:48:34;;;;;;;75.80;23.47;;;;;;;-0.98;100.00;101309.60;1710386;83;20896;-90
2021/12/31 06:51:00;;;;;;;71.28;21.30;;;;;;;-0.95;100.00;101309.77;1710233;83;21739;-90
2021/12/31 06:53:26;;;;;;;71.65;21.68;;;;;;;-0.95;100.00;101310.59;1687998;83;21078;-90
2021/12/31 06:55:52;;;;;;;74.77;22.67;;;;;;;-0.94;100.00;101306.97;1710062;83;21523;-90
2021/12/31 06:58:18;;;;;;;70.35;23.07;;;;;;;-0.87;100.00;101312.92;1710098;83;21113;-91
2021/12/31 07:00:44;;;;;;;68.55;19.62;;;;;;;-0.87;100.00;101312.92;1709925;83;21120;-90
2021/12/31 07:03:13;;;;;;;63.42;19.23;;;;;;;-0.94;100.00;101317.55;1710235;83;21012;-91
2021/12/31 07:05:43;;;;;;;63.48;20.27;;;;;;;-1.00;100.00;101323.52;1710327;82;21097;-90
2021/12/31 07:08:13;;;;;;;61.88;19.42;;;;;;;-1.03;100.00;101319.02;1708711;83;21094;-90
2021/12/31 07:10:39;;;;;;;68.65;20.52;;;;;;;-1.00;100.00;101313.41;1709859;82;21034;-90
2021/12/31 07:13:11;;;;;;;62.48;19.57;;;;;;;-0.99;100.00;101313.25;1710229;82;20988;-91
2021/12/31 07:15:35;;;;;;;59.03;19.30;;;;;;;-0.97;100.00;101317.89;1708020;82;21059;-91
2021/12/31 07:18:03;;;;;;;62.13;18.25;;;;;;;-1.00;100.00;101318.69;1694182;82;21060;-91
2021/12/31 07:20:29;;;;;;;71.85;20.43;;;;;;;-0.97;100.00;101317.89;1710069;82;21011;-92
2021/12/31 07:22:55;;;;;;;57.78;18.30;;;;;;;-0.96;100.00;101318.21;1724920;82;20999;-92
2021/12/31 07:25:21;;;;;;;54.88;17.45;;;;;;;-0.96;100.00;101323.50;1707332;82;20924;-91
2021/12/31 07:27:50;;;;;;;54.35;17.00;;;;;;;-0.95;100.00;101325.14;1729610;82;21301;-95
2021/12/31 07:30:16;;;;;;;53.40;16.85;;;;;;;-0.92;100.00;101335.89;1728133;82;21015;-93
2021/12/31 07:32:42;;;;;;;54.70;16.07;;;;;;;-0.88;100.00;101328.44;1726584;82;21606;-93
2021/12/31 07:35:08;;;;;;;50.70;15.90;;;;;;;-0.92;100.00;101329.28;1720972;82;21087;-93
2021/12/31 07:37:36;;;;;;;48.30;14.85;;;;;;;-0.94;100.00;101335.25;1725822;82;21034;-92
2021/12/31 07:40:05;;;;;;;55.30;16.25;;;;;;;-0.92;100.00;101331.92;1720398;83;21073;-91
2021/12/31 07:42:31;;;;;;;51.68;14.95;;;;;;;-1.01;100.00;101317.05;1725816;82;21046;-90
2021/12/31 07:44:57;;;;;;;47.45;13.70;;;;;;;-0.97;100.00;101325.83;1725192;82;21890;-91
2021/12/31 07:47:23;;;;;;;43.15;14.83;;;;;;;-1.01;100.00;101326.31;1726764;82;21100;-90
2021/12/31 07:49:49;;;;;;;41.13;14.10;;;;;;;-1.00;100.00;101326.62;1724616;82;21161;-92
2021/12/31 07:52:15;;;;;;;45.88;14.28;;;;;;;-1.04;100.00;101324.81;1723438;83;21041;-90
2021/12/31 07:54:41;;;;;;;43.40;14.25;;;;;;;-1.07;100.00;101323.83;1723306;83;20903;-90
2021/12/31 07:57:10;;;;;;;44.18;13.28;;;;;;;-1.06;100.00;101324.17;1723019;83;22245;-90
2021/12/31 07:59:36;;;;;;;46.37;14.18;;;;;;;-1.12;100.00;101326.13;1723568;82;21483;-91
2021/12/31 08:02:02;;;;;;;38.85;12.50;;;;;;;-1.09;100.00;101327.63;1723343;83;21030;-91
2021/12/31 08:04:28;;;;;;;43.10;13.85;;;;;;;-1.08;100.00;101319.54;1723307;83;21537;-90
2021/12/31 08:06:54;;;;;;;41.95;13.20;;;;;;;-1.10;100.00;101320.19;1723185;82;20828;-90
2021/12/31 08:09:20;;;;;;;38.85;12.88;;;;;;;-1.08;100.00;101320.86;1723435;82;21104;-91
2021/12/31 08:11:46;;;;;;;53.10;14.35;;;;;;;-1.08;100.00;101310.78;1723220;82;21133;-91
2021/12/31 08:14:12;;;;;;;54.53;15.83;;;;;;;-1.05;100.00;101313.91;1723328;82;21539;-91
2021/12/31 08:16:38;;;;;;;44.70;14.38;;;;;;;-0.99;100.00;101315.08;1723353;83;20971;-90
2021/12/31 08:19:06;;;;;;;54.15;15.95;;;;;;;-0.99;100.00;101312.44;1713071;83;20928;-91
2021/12/31 08:21:32;;;;;;;49.33;15.60;;;;;;;-1.04;100.00;101314.23;1717531;81;21291;-91
2021/12/31 08:23:58;;;;;;;54.42;15.43;;;;;;;-1.01;100.00;101310.44;1710478;83;21252;-91
2021/12/31 08:26:24;;;;;;;56.50;17.75;;;;;;;-0.93;100.00;101305.97;1710340;83;21070;-90
2021/12/31 08:28:50;;;;;;;57.05;16.35;;;;;;;-0.84;100.00;101300.67;1698335;83;20865;-91
2021/12/31 08:31:16;;;;;;;47.67;15.50;;;;;;;-0.80;100.00;101300.16;1710345;83;20992;-90
2021/12/31 08:33:42;;;;;;;53.63;16.02;;;;;;;-0.73;100.00;101287.92;1710339;83;20989;-90
2021/12/31 08:36:09;;;;;;;55.83;16.45;;;;;;;-0.62;100.00;101282.75;1710404;83;21102;-91
2021/12/31 08:38:35;;;;;;;65.35;18.25;;;;;;;-0.47;100.00;101282.41;1710131;83;21370;-90
2021/12/31 08:41:01;;;;;;;52.08;16.40;;;;;;;-0.31;100.00;101283.34;1710375;83;20873;-90
2021/12/31 08:43:28;;;;;;;59.25;17.90;;;;;;;-0.22;100.00;101277.52;1709932;82;21011;-90
2021/12/31 08:45:54;;;;;;;51.00;17.02;;;;;;;-0.01;100.00;101269.28;1710584;82;20936;-90
2021/12/31 08:48:21;;;;;;;60.20;16.65;;;;;;;0.14;100.00;101264.58;1710231;82;21071;-91
2021/12/31 08:50:47;;;;;;;52.90;17.02;;;;;;;0.23;100.00;101266.99;1710173;83;21004;-90
2021/12/31 08:53:13;;;;;;;54.85;16.17;;;;;;;0.32;100.00;101270.42;1710371;82;20888;-90
2021/12/31 08:55:39;;;;;;;62.67;18.32;;;;;;;0.35;100.00;101258.14;1710633;83;21012;-91
2021/12/31 08:58:06;;;;;;;56.30;17.23;;;;;;;0.39;100.00;101251.50;1710415;83;21015;-91
2021/12/31 09:00:33;;;;;;;53.83;17.77;;;;;;;0.51;100.00;101247.12;1710530;82;21088;-92
2021/12/31 09:02:59;;;;;;;60.00;17.85;;;;;;;0.54;100.00;101242.78;1710452;82;21000;-91
2021/12/31 09:05:25;;;;;;;63.85;19.50;;;;;;;0.62;100.00;101235.59;1710551;83;20979;-91
2021/12/31 09:07:51;;;;;;;64.37;19.02;;;;;;;0.76;100.00;101231.30;1710695;83;20992;-92
2021/12/31 09:10:17;;;;;;;60.70;17.95;;;;;;;0.96;100.00;101230.80;1710523;82;21535;-91
2021/12/31 09:12:47;;;;;;;65.80;18.62;;;;;;;1.25;100.00;101223.37;1710521;82;21114;-91
2021/12/31 09:15:13;;;;;;;60.78;18.48;;;;;;;1.38;100.00;101220.07;1710538;82;21511;-93
2021/12/31 09:17:40;;;;;;;66.28;18.05;;;;;;;1.51;100.00;101218.42;1711058;82;21055;-92
2021/12/31 09:20:08;;;;;;;64.17;19.25;;;;;;;1.62;100.00;101215.81;1710904;83;21004;-93
2021/12/31 09:22:34;;;;;;;64.32;20.55;;;;;;;1.71;100.00;101205.39;1710381;81;21119;-93
2021/12/31 09:25:00;;;;;;;73.90;22.35;;;;;;;1.99;100.00;101208.66;1711221;83;21989;-93
2021/12/31 09:27:28;;;;;;;68.05;20.75;;;;;;;2.20;100.00;101204.69;1710997;83;21039;-91
2021/12/31 09:29:55;;;;;;;70.37;21.55;;;;;;;2.35;100.00;101201.96;1658080;85;21105;-93
2021/12/31 09:32:21;;;;;;;63.08;20.35;;;;;;;2.51;100.00;101207.55;1657916;85;21061;-93
2021/12/31 09:34:48;;;;;;;68.67;20.92;;;;;;;2.55;100.00;101205.31;1657911;85;21067;-92
2021/12/31 09:37:16;;;;;;;64.72;20.12;;;;;;;2.52;100.00;101198.54;1658232;85;21093;-93
2021/12/31 09:39:42;;;;;;;62.05;19.60;;;;;;;2.56;100.00;101198.97;1658223;86;21049;-92
2021/12/31 09:42:09;;;;;;;72.22;21.20;;;;;;;2.42;100.00;101201.53;1658249;85;21465;-93
2021/12/31 09:44:37;;;;;;;66.97;21.17;;;;;;;2.28;100.00;101194.44;1657954;86;21100;-93
2021/12/31 09:47:10;;;;;;;68.00;20.70;;;;;;;2.32;100.00;101190.89;1657883;85;21109;-92
2021/12/31 09:49:34;;;;;;;71.85;20.30;;;;;;;2.38;100.00;101191.45;1654134;85;21059;-91
2021/12/31 09:52:02;;;;;;;63.83;19.65;;;;;;;2.36;100.00;101188.18;1657869;86;21129;-92
2021/12/31 09:54:28;;;;;;;65.32;19.27;;;;;;;2.24;100.00;101186.03;1657446;85;21302;-92
2021/12/31 09:56:54;;;;;;;63.95;20.55;;;;;;;2.21;100.00;101195.71;1657640;85;21081;-92
2021/12/31 09:59:23;;;;;;;65.42;19.55;;;;;;;2.25;100.00;101192.16;1657836;86;21183;-91
2021/12/31 10:01:51;;;;;;;63.20;19.82;;;;;;;2.28;100.00;101186.47;1657250;85;21081;-92
2021/12/31 10:04:17;;;;;;;62.80;20.08;;;;;;;2.32;100.00;101176.26;1657672;85;21057;-91
2021/12/31 10:07:07;;;;;;;62.70;19.42;;;;;;;2.34;100.00;101183.55;1657729;86;21574;-91
2021/12/31 10:09:35;;;;;;;67.05;19.67;;;;;;;2.37;100.00;101183.16;1657247;85;21054;-92
2021/12/31 10:12:02;;;;;;;56.70;18.87;;;;;;;2.18;100.00;101174.83;1657972;85;21144;-91
2021/12/31 10:14:48;;;;;;;61.80;19.10;;;;;;;2.03;100.00;101174.06;1657691;85;21246;-91
2021/12/31 10:17:17;;;;;;;55.70;18.40;;;;;;;1.97;100.00;101165.49;1657971;85;21480;-93
2021/12/31 10:19:57;;;;;;;53.90;17.55;;;;;;;1.99;100.00;101167.47;1651515;86;21089;-93
2021/12/31 10:22:23;;;;;;;56.50;17.62;;;;;;;2.00;100.00;101170.42;1657556;85;21516;-93
2021/12/31 10:24:51;;;;;;;50.63;17.92;;;;;;;1.93;100.00;101161.58;1657706;85;21162;-92
2021/12/31 10:27:19;;;;;;;53.63;17.15;;;;;;;1.92;100.00;101159.94;1694213;83;21035;-92
2021/12/31 10:30:00;;;;;;;51.42;17.07;;;;;;;1.92;100.00;101158.10;1710148;82;21070;-92
2021/12/31 10:32:29;;;;;;;55.50;19.23;;;;;;;2.02;100.00;101154.61;1710493;82;21031;-92
2021/12/31 10:35:15;;;;;;;45.28;17.50;;;;;;;2.06;100.00;101152.42;1708387;83;21047;-93
2021/12/31 10:37:44;;;;;;;55.20;17.82;;;;;;;2.11;100.00;101153.16;1710288;82;21518;-93
2021/12/31 10:40:11;;;;;;;53.00;17.50;;;;;;;2.13;100.00;101147.16;1710627;83;21287;-92
2021/12/31 10:42:38;;;;;;;57.58;18.73;;;;;;;2.10;100.00;101152.34;1710247;83;21090;-92
2021/12/31 10:45:06;;;;;;;50.50;17.40;;;;;;;2.03;100.00;101143.50;1710063;83;21065;-92
2021/12/31 10:47:39;;;;;;;51.50;17.67;;;;;;;1.99;100.00;101141.70;1706476;83;21067;-91
2021/12/31 10:50:09;;;;;;;49.50;16.60;;;;;;;1.94;100.00;101146.78;1702197;83;21137;-93
2021/12/31 10:52:47;;;;;;;55.55;17.57;;;;;;;1.92;100.00;101150.64;1592900;88;21834;-93
2021/12/31 10:57:51;;;;;;;47.85;15.48;;;;;;;1.90;100.00;101140.70;1477754;96;21651;-93
2021/12/31 11:00:18;;;;;;;50.10;16.00;;;;;;;1.80;100.00;101139.69;1500548;95;21129;-93
2021/12/31 11:02:47;;;;;;;47.08;15.10;;;;;;;1.76;100.00;101139.22;1500641;95;21102;-94
2021/12/31 11:05:17;;;;;;;46.33;15.95;;;;;;;1.75;100.00;101140.75;1509453;94;22350;-93
2021/12/31 11:07:47;;;;;;;46.50;14.70;;;;;;;1.81;100.00;101136.83;1495425;95;21159;-92
2021/12/31 11:10:15;;;;;;;46.88;15.90;;;;;;;1.73;100.00;101132.95;1503439;94;21608;-95